Time;durP1;ratioP1;P1;durP2;ratioP2;P2;SDS_P1;SDS_P2;PMS_P1;PMS_P2;Temp;Humidity;BMP_temperature;BMP_pressure;BME280_temperature;BME280_humidity;BME280_pressure;Samples;Min_cycle;Max_cycle;Signal;HPM_P1;HPM_P2
2022/03/26 00:00:34;;;;;;;15.98;9.07;;;;;;;7.25;36.34;100610.97;5070292;28;20033;-81
2022/03/26 00:03:14;;;;;;;14.80;8.60;;;;;;;6.97;36.69;100610.06;5052881;28;20043;-78
2022/03/26 00:05:41;;;;;;;12.55;9.32;;;;;;;6.96;36.62;100613.63;5066499;28;20387;-79
2022/03/26 00:08:07;;;;;;;13.70;8.70;;;;;;;6.90;37.18;100619.25;5019522;28;20077;-79
2022/03/26 00:10:33;;;;;;;12.43;9.48;;;;;;;6.86;37.29;100623.00;5053918;28;20082;-81
2022/03/26 00:12:59;;;;;;;15.60;9.13;;;;;;;6.86;38.15;100617.75;5053091;28;20059;-80
2022/03/26 00:20:08;;;;;;;15.60;10.32;;;;;;;6.64;38.61;100620.00;5038228;28;20068;-81
2022/03/26 00:34:19;;;;;;;10.45;9.27;;;;;;;6.24;39.78;100631.16;5040021;28;20064;-80
2022/03/26 00:36:44;;;;;;;13.85;9.70;;;;;;;6.19;40.01;100620.91;5024976;28;20088;-80
2022/03/26 00:39:09;;;;;;;11.13;9.23;;;;;;;6.18;39.98;100625.31;5039887;28;20474;-80
2022/03/26 00:41:35;;;;;;;13.52;9.77;;;;;;;6.13;40.40;100631.75;5039739;28;20033;-81
2022/03/26 00:44:02;;;;;;;14.73;9.52;;;;;;;6.10;41.25;100632.78;5025243;28;20040;-80
2022/03/26 00:46:27;;;;;;;14.40;9.75;;;;;;;6.10;41.22;100634.56;5043418;28;20037;-79
2022/03/26 00:48:56;;;;;;;10.82;9.32;;;;;;;6.05;40.77;100629.59;5041909;28;20545;-80
2022/03/26 00:51:22;;;;;;;12.55;9.77;;;;;;;5.99;40.59;100626.47;5041576;28;20388;-79
2022/03/26 00:53:48;;;;;;;13.00;10.30;;;;;;;6.01;40.59;100628.06;5049325;28;20080;-78
2022/03/26 00:56:14;;;;;;;16.38;10.15;;;;;;;6.02;40.67;100623.66;5050256;28;20077;-80
2022/03/26 00:58:40;;;;;;;15.75;10.55;;;;;;;5.98;40.40;100628.25;5064727;23;20049;-81
2022/03/26 01:01:07;;;;;;;17.83;10.27;;;;;;;5.99;40.42;100621.22;5032932;28;20032;-81
2022/03/26 01:03:34;;;;;;;14.85;10.38;;;;;;;6.05;40.39;100619.13;5051089;28;20039;-80
2022/03/26 01:05:59;;;;;;;12.85;9.70;;;;;;;6.10;40.81;100627.56;5051292;28;20580;-81
2022/03/26 01:08:25;;;;;;;17.80;10.10;;;;;;;6.08;40.40;100629.41;5050915;28;20433;-79
2022/03/26 01:10:51;;;;;;;13.52;9.82;;;;;;;6.01;40.25;100622.81;5051855;28;20384;-80
2022/03/26 01:13:16;;;;;;;17.45;11.00;;;;;;;5.91;40.90;100626.91;5033344;28;20037;-80
2022/03/26 01:15:42;;;;;;;14.32;10.02;;;;;;;5.87;40.53;100630.63;5051297;28;20474;-80
2022/03/26 01:18:09;;;;;;;18.75;10.80;;;;;;;5.86;41.27;100626.28;5050596;28;20032;-79
2022/03/26 01:20:36;;;;;;;12.05;10.18;;;;;;;5.91;40.89;100632.16;5033786;28;20402;-79
2022/03/26 01:23:01;;;;;;;14.10;10.52;;;;;;;5.86;41.08;100628.06;5051109;28;20040;-80
2022/03/26 01:25:27;;;;;;;14.52;10.10;;;;;;;5.75;41.27;100626.91;5051345;28;20033;-79
2022/03/26 01:27:53;;;;;;;16.80;11.02;;;;;;;5.80;41.24;100624.03;5052674;28;20428;-80
2022/03/26 01:30:18;;;;;;;13.13;9.75;;;;;;;5.80;41.38;100629.25;5052766;28;20045;-79
2022/03/26 01:32:44;;;;;;;13.57;10.48;;;;;;;5.75;41.75;100631.28;5051210;28;20035;-80
2022/03/26 01:35:11;;;;;;;12.98;10.45;;;;;;;5.67;41.88;100629.09;5051147;28;20064;-80
2022/03/26 01:56:46;;;;;;;13.50;10.05;;;;;;;4.94;43.97;100642.72;5416293;22;20179;-79
2022/03/26 02:22:33;;;;;;;16.63;12.93;;;;;;;4.76;45.50;100641.06;4777332;30;20100;-79
2022/03/26 02:25:23;;;;;;;;;;;;;;;;;;;;;
2022/03/26 02:29:15;;;;;;;16.10;11.15;;;;;;;4.84;44.60;100636.25;4777555;30;20245;-79
2022/03/26 02:36:45;;;;;;;15.05;10.30;;;;;;;5.01;44.20;100638.03;4699199;30;20579;-78
2022/03/26 02:39:35;;;;;;;17.27;11.32;;;;;;;5.06;44.14;100631.63;4739504;30;20056;-79
2022/03/26 02:42:19;;;;;;;17.63;10.80;;;;;;;5.06;44.44;100636.84;4744044;30;20152;-78
2022/03/26 02:44:48;;;;;;;18.00;11.48;;;;;;;5.01;44.69;100644.06;4784046;29;20063;-79
2022/03/26 02:51:14;;;;;;;16.73;11.60;;;;;;;5.03;44.98;100637.00;4745694;30;20056;-80
2022/03/26 02:53:48;;;;;;;15.23;11.50;;;;;;;4.99;45.34;100640.72;4743743;30;20158;-78
2022/03/26 02:56:31;;;;;;;18.92;11.07;;;;;;;5.00;45.32;100645.03;4746736;30;20114;-79
2022/03/26 02:59:23;;;;;;;20.05;12.38;;;;;;;5.00;45.85;100646.78;4750105;30;20056;-78
2022/03/26 03:01:49;;;;;;;13.07;10.45;;;;;;;4.95;45.33;100652.25;4744993;30;20133;-80
2022/03/26 03:04:15;;;;;;;26.02;11.27;;;;;;;4.87;45.59;100657.03;4749731;30;20656;-79
2022/03/26 03:07:02;;;;;;;19.35;11.70;;;;;;;4.79;45.84;100651.34;4854466;29;20048;-78
2022/03/26 03:09:28;;;;;;;17.55;12.38;;;;;;;4.69;46.24;100652.75;4882256;29;20510;-78
2022/03/26 03:11:53;;;;;;;16.60;11.60;;;;;;;4.62;46.60;100646.16;4868908;29;20062;-78
2022/03/26 03:14:19;;;;;;;25.92;12.25;;;;;;;4.50;47.10;100658.94;4852838;29;20205;-79
2022/03/26 03:16:45;;;;;;;14.70;11.32;;;;;;;4.41;47.24;100651.56;4867819;29;20034;-79
2022/03/26 03:19:11;;;;;;;19.40;11.38;;;;;;;4.42;47.36;100650.63;4872984;29;20166;-78
2022/03/26 03:21:36;;;;;;;16.70;10.98;;;;;;;4.45;47.33;100655.69;4869695;29;20051;-80
2022/03/26 03:24:02;;;;;;;15.95;11.07;;;;;;;4.46;47.10;100660.00;4900219;29;20080;-79
2022/03/26 03:26:28;;;;;;;17.70;10.80;;;;;;;4.49;46.97;100657.22;4934725;28;20044;-79
2022/03/26 03:28:57;;;;;;;17.10;11.35;;;;;;;4.46;46.85;100665.25;5074726;28;20044;-79
2022/03/26 03:31:23;;;;;;;17.02;10.15;;;;;;;4.42;46.79;100661.06;5055583;28;20049;-78
2022/03/26 03:33:50;;;;;;;17.30;11.50;;;;;;;4.41;46.91;100659.41;5067808;28;20033;-79
2022/03/26 03:36:15;;;;;;;15.95;10.38;;;;;;;4.37;46.53;100665.69;5071783;28;20041;-79
2022/03/26 03:38:41;;;;;;;13.15;10.20;;;;;;;4.32;46.71;100670.31;5075122;28;20043;-79
2022/03/26 03:41:06;;;;;;;17.25;10.38;;;;;;;4.28;46.68;100676.59;5055472;28;20036;-79
2022/03/26 03:43:32;;;;;;;18.63;10.88;;;;;;;4.19;46.88;100670.97;5058191;28;20048;-79
2022/03/26 03:45:59;;;;;;;14.13;10.82;;;;;;;4.12;47.34;100683.50;5051362;28;20037;-79
2022/03/26 03:48:24;;;;;;;17.25;11.25;;;;;;;4.09;47.33;100678.41;5054473;28;20436;-78
2022/03/26 03:50:50;;;;;;;15.40;10.88;;;;;;;4.00;47.84;100676.28;5035853;28;20131;-79
2022/03/26 03:53:17;;;;;;;15.63;10.23;;;;;;;3.99;47.88;100677.19;5053015;28;20029;-79
2022/03/26 03:55:42;;;;;;;17.60;10.55;;;;;;;3.99;47.72;100685.03;5053144;28;20048;-79
2022/03/26 03:58:08;;;;;;;13.18;9.68;;;;;;;3.93;48.03;100687.91;5052897;28;20493;-79
2022/03/26 04:00:34;;;;;;;15.63;10.40;;;;;;;3.78;48.99;100678.19;5053042;28;20462;-79
2022/03/26 04:03:00;;;;;;;13.50;9.60;;;;;;;3.67;48.88;100681.31;5053475;28;20385;-78
2022/03/26 04:05:26;;;;;;;15.93;10.35;;;;;;;3.70;49.26;100686.41;5053059;28;20140;-78
2022/03/26 04:07:51;;;;;;;16.80;9.82;;;;;;;3.68;49.49;100689.06;5052771;28;20052;-78
2022/03/26 04:10:17;;;;;;;15.98;10.48;;;;;;;3.66;49.33;100685.69;5052432;28;20041;-79
2022/03/26 04:12:44;;;;;;;14.48;10.65;;;;;;;3.74;49.29;100692.31;5052629;28;20037;-79
2022/03/26 04:15:12;;;;;;;19.40;10.55;;;;;;;3.67;49.28;100697.81;5052227;28;20037;-78
2022/03/26 04:17:39;;;;;;;18.17;10.57;;;;;;;3.67;49.98;100692.59;5052518;28;20605;-78
2022/03/26 04:20:10;;;;;;;15.20;10.35;;;;;;;3.49;51.13;100698.66;5050386;28;20037;-79
2022/03/26 04:22:36;;;;;;;18.33;9.98;;;;;;;3.14;52.32;100692.44;5030521;28;20457;-80
2022/03/26 04:27:43;;;;;;;13.18;9.95;;;;;;;3.00;54.20;100693.97;5050060;28;20349;-79
2022/03/26 04:30:30;;;;;;;14.02;10.48;;;;;;;3.02;54.00;100698.19;5033315;28;20041;-79
2022/03/26 04:32:56;;;;;;;14.38;9.77;;;;;;;3.06;54.06;100704.13;5051691;28;20033;-79
2022/03/26 04:35:22;;;;;;;13.98;10.15;;;;;;;3.13;54.39;100705.53;5050981;28;20442;-79
2022/03/26 04:37:48;;;;;;;17.02;10.50;;;;;;;3.13;54.37;100706.38;5051816;28;20139;-80
2022/03/26 04:40:14;;;;;;;14.18;9.98;;;;;;;3.11;54.83;100702.16;5051980;28;20055;-80
2022/03/26 04:42:41;;;;;;;17.75;9.65;;;;;;;3.04;54.89;100706.81;5051997;28;20052;-80
2022/03/26 04:45:10;;;;;;;14.43;10.50;;;;;;;2.96;55.33;100708.88;5051712;28;20037;-79
2022/03/26 04:47:35;;;;;;;11.75;9.00;;;;;;;2.98;54.71;100711.44;5047497;28;20029;-79
2022/03/26 04:50:01;;;;;;;15.32;9.40;;;;;;;3.03;55.07;100714.69;5050836;28;20454;-79
2022/03/26 04:52:26;;;;;;;12.85;9.05;;;;;;;3.03;55.66;100712.06;5051246;28;20044;-78
2022/03/26 04:54:52;;;;;;;13.63;9.50;;;;;;;3.08;55.05;100712.72;5033561;28;20109;-78
2022/03/26 04:57:18;;;;;;;15.30;9.32;;;;;;;3.13;54.85;100719.44;5033341;28;20033;-78
2022/03/26 04:59:44;;;;;;;14.27;9.57;;;;;;;3.08;54.82;100723.16;5033612;28;20170;-79
2022/03/26 05:02:10;;;;;;;13.45;10.40;;;;;;;3.10;55.08;100729.16;5051637;28;20040;-79
2022/03/26 05:04:36;;;;;;;14.00;10.00;;;;;;;3.03;54.59;100732.94;5037838;28;20480;-81
2022/03/26 05:07:45;;;;;;;15.73;10.02;;;;;;;3.06;55.03;100727.59;5051748;28;20112;-79
2022/03/26 05:09:47;;;;;;;18.38;10.65;;;;;;;3.03;54.52;100735.53;5049444;28;20485;-79
2022/03/26 05:12:12;;;;;;;18.08;10.02;;;;;;;3.00;54.08;100735.69;5050996;28;20083;-78
2022/03/26 05:14:38;;;;;;;16.70;10.10;;;;;;;2.94;54.33;100743.78;5051297;28;20111;-78
2022/03/26 05:17:03;;;;;;;14.52;9.88;;;;;;;2.79;54.56;100738.28;5050847;28;20413;-79
2022/03/26 05:19:29;;;;;;;15.18;11.52;;;;;;;2.68;54.75;100740.50;5050809;28;20029;-79
2022/03/26 05:21:54;;;;;;;19.98;11.23;;;;;;;2.59;55.05;100746.13;5051336;28;20381;-77
2022/03/26 05:24:20;;;;;;;13.18;10.00;;;;;;;2.45;56.42;100753.63;5016569;28;20219;-79
2022/03/26 05:26:45;;;;;;;12.27;9.63;;;;;;;2.32;56.84;100752.44;5051195;28;20044;-79
2022/03/26 05:29:13;;;;;;;15.27;9.30;;;;;;;2.11;58.14;100748.94;5050933;28;20037;-79
2022/03/26 05:31:38;;;;;;;16.92;9.93;;;;;;;2.00;58.69;100751.94;5033024;28;20029;-78
2022/03/26 05:34:03;;;;;;;11.68;9.23;;;;;;;1.97;58.66;100746.88;5051039;28;20519;-80
2022/03/26 05:36:29;;;;;;;13.65;9.35;;;;;;;1.93;59.14;100755.72;5033242;28;20017;-79
2022/03/26 05:38:55;;;;;;;11.02;8.88;;;;;;;1.95;58.80;100759.09;5033696;28;20056;-79
2022/03/26 05:41:22;;;;;;;16.23;9.07;;;;;;;2.00;58.82;100756.31;5050742;28;20060;-79
2022/03/26 05:43:48;;;;;;;18.73;9.88;;;;;;;2.02;58.33;100760.56;5317187;22;20496;-78
2022/03/26 05:46:13;;;;;;;15.07;10.52;;;;;;;2.16;57.84;100760.03;5051055;28;20096;-79
2022/03/26 05:48:39;;;;;;;14.32;10.05;;;;;;;2.32;57.47;100762.84;5049215;28;20029;-79
2022/03/26 05:51:04;;;;;;;13.82;8.90;;;;;;;2.28;57.82;100761.28;5050047;28;20055;-79
2022/03/26 05:53:30;;;;;;;13.18;8.95;;;;;;;2.15;58.08;100771.34;5050821;28;20189;-80
2022/03/26 05:55:55;;;;;;;13.05;8.95;;;;;;;2.18;58.06;100766.00;5051744;28;20432;-79
2022/03/26 05:58:21;;;;;;;13.02;8.10;;;;;;;2.15;57.90;100767.88;5033186;28;20056;-79
2022/03/26 06:00:49;;;;;;;16.38;9.30;;;;;;;2.02;57.90;100765.75;5051322;28;20032;-80
2022/03/26 06:03:17;;;;;;;16.90;9.57;;;;;;;1.96;58.32;100771.19;5016747;28;20063;-79
2022/03/26 06:05:42;;;;;;;13.85;8.38;;;;;;;1.96;57.88;100767.75;5016710;28;20048;-81
2022/03/26 06:08:09;;;;;;;16.75;9.88;;;;;;;1.97;58.12;100765.09;5050959;28;20098;-80
2022/03/26 06:10:35;;;;;;;13.35;8.55;;;;;;;1.99;58.15;100760.69;5051462;28;20033;-79
2022/03/26 06:13:01;;;;;;;14.93;8.73;;;;;;;2.00;58.50;100761.53;5051542;28;20029;-80
2022/03/26 06:15:26;;;;;;;11.52;9.35;;;;;;;2.04;58.57;100763.94;5033572;28;20335;-79
2022/03/26 06:17:52;;;;;;;14.63;10.82;;;;;;;2.11;58.23;100763.72;5034533;28;20032;-79
2022/03/26 06:20:17;;;;;;;17.52;9.98;;;;;;;2.23;57.67;100771.91;5067503;28;20043;-77
2022/03/26 06:22:43;;;;;;;15.38;9.90;;;;;;;2.38;57.17;100767.81;5073815;28;20028;-79
2022/03/26 06:25:08;;;;;;;15.52;10.20;;;;;;;2.57;56.72;100768.78;5065155;28;20083;-79
2022/03/26 06:27:34;;;;;;;13.95;10.07;;;;;;;2.70;56.17;100780.41;5017510;28;20030;-80
2022/03/26 06:30:00;;;;;;;14.80;10.80;;;;;;;2.78;56.02;100778.31;5036511;28;20476;-80
2022/03/26 06:32:26;;;;;;;15.95;11.38;;;;;;;2.84;56.13;100780.66;5052540;28;20048;-79
2022/03/26 06:34:52;;;;;;;17.08;11.27;;;;;;;2.94;55.04;100783.75;5051717;28;20069;-79
2022/03/26 06:37:20;;;;;;;15.25;11.25;;;;;;;3.14;54.68;100790.69;5051036;28;20068;-79
2022/03/26 06:39:45;;;;;;;15.32;10.50;;;;;;;3.33;53.70;100801.19;5033973;28;20489;-80
2022/03/26 06:42:11;;;;;;;15.02;10.75;;;;;;;3.53;52.91;100786.38;5051254;28;20067;-79
2022/03/26 06:44:36;;;;;;;17.98;11.10;;;;;;;3.63;51.94;100790.25;5033945;28;20052;-78
2022/03/26 06:47:03;;;;;;;14.38;10.65;;;;;;;3.77;51.26;100802.66;5021118;28;20135;-80
2022/03/26 06:49:31;;;;;;;17.88;11.30;;;;;;;3.91;50.89;100795.06;5058600;28;20493;-78
2022/03/26 06:51:57;;;;;;;21.40;11.30;;;;;;;3.98;50.26;100806.06;5021534;28;20382;-79
2022/03/26 06:54:22;;;;;;;17.15;11.93;;;;;;;3.94;50.63;100799.31;5051975;28;20041;-79
2022/03/26 06:56:48;;;;;;;17.05;12.07;;;;;;;4.00;50.42;100805.09;5037175;28;20053;-79
2022/03/26 06:59:17;;;;;;;16.48;11.48;;;;;;;4.12;49.96;100804.50;5055249;28;20072;-79
2022/03/26 07:01:45;;;;;;;19.00;11.77;;;;;;;4.19;49.94;100810.28;5055236;28;20033;-79
2022/03/26 07:04:16;;;;;;;16.85;12.88;;;;;;;4.27;50.17;100808.16;5055784;28;20116;-80
2022/03/26 07:06:42;;;;;;;17.60;11.60;;;;;;;4.37;49.66;100809.41;5046796;28;20079;-79
2022/03/26 07:09:07;;;;;;;16.90;11.15;;;;;;;4.46;49.67;100809.00;5076188;28;20021;-81
2022/03/26 07:11:33;;;;;;;16.25;11.25;;;;;;;4.60;49.08;100816.16;5073499;28;20048;-81
2022/03/26 07:14:01;;;;;;;15.85;11.00;;;;;;;4.73;49.13;100811.16;5069889;28;20029;-79
2022/03/26 07:16:26;;;;;;;13.80;12.20;;;;;;;4.89;48.71;100812.94;5065544;28;20041;-78
2022/03/26 07:18:52;;;;;;;21.45;11.65;;;;;;;4.89;48.80;100812.09;5056163;28;20465;-79
2022/03/26 07:21:18;;;;;;;14.38;11.13;;;;;;;4.83;48.67;100813.25;5055882;28;20112;-80
2022/03/26 07:23:43;;;;;;;17.27;11.00;;;;;;;4.86;48.93;100812.25;5055512;28;20485;-80
2022/03/26 07:26:09;;;;;;;15.65;11.77;;;;;;;5.02;49.36;100815.81;5037619;28;20025;-81
2022/03/26 07:28:34;;;;;;;14.52;11.13;;;;;;;5.15;49.08;100824.72;5054434;28;20097;-79
2022/03/26 07:31:02;;;;;;;15.27;11.77;;;;;;;5.32;48.90;100824.72;5054808;28;20389;-80
2022/03/26 07:33:28;;;;;;;17.42;11.15;;;;;;;5.45;49.05;100837.19;5054474;28;20029;-79
2022/03/26 07:35:53;;;;;;;20.48;11.27;;;;;;;5.44;49.46;100827.63;5054143;28;20083;-79
2022/03/26 07:38:19;;;;;;;17.83;11.73;;;;;;;5.46;49.10;100828.41;5072181;22;20072;-82
2022/03/26 07:40:45;;;;;;;21.73;12.48;;;;;;;5.59;49.03;100825.06;5044282;28;20025;-79
2022/03/26 07:43:10;;;;;;;14.35;11.30;;;;;;;5.80;48.57;100833.56;5072074;28;20045;-80
2022/03/26 07:45:36;;;;;;;18.90;11.10;;;;;;;6.00;48.12;100827.31;5052687;28;20044;-80
2022/03/26 07:48:02;;;;;;;17.67;12.20;;;;;;;6.26;48.62;100825.84;5072118;28;20029;-80
2022/03/26 07:50:28;;;;;;;15.45;12.05;;;;;;;6.45;47.69;100843.13;5055164;28;20033;-81
2022/03/26 07:52:54;;;;;;;19.30;12.68;;;;;;;6.58;47.42;100841.50;5056055;28;20104;-81
2022/03/26 07:55:20;;;;;;;18.27;12.63;;;;;;;6.71;46.76;100843.44;5036867;28;20115;-79
2022/03/26 07:57:46;;;;;;;22.70;12.68;;;;;;;6.87;46.19;100837.22;5054165;28;20032;-81
2022/03/26 08:00:12;;;;;;;10.95;9.85;;;;;;;7.07;45.77;100845.72;4337710;28;10021365;-82
2022/03/26 08:02:40;;;;;;;20.55;14.05;;;;;;;7.32;45.28;100845.97;5051001;28;20579;-81
2022/03/26 08:05:06;;;;;;;19.45;13.63;;;;;;;7.55;45.09;100845.44;5031445;28;20056;-83
2022/03/26 08:07:31;;;;;;;19.13;13.55;;;;;;;7.73;44.78;100836.44;5051415;28;20036;-83
2022/03/26 08:09:57;;;;;;;15.73;12.57;;;;;;;8.01;44.15;100845.28;5050330;28;20029;-82
2022/03/26 08:12:22;;;;;;;19.27;12.82;;;;;;;8.19;43.95;100846.72;5050428;28;20094;-82
2022/03/26 08:14:48;;;;;;;18.10;12.52;;;;;;;8.39;43.76;100835.00;5051055;28;20033;-83
2022/03/26 08:17:14;;;;;;;16.88;12.85;;;;;;;8.60;43.16;100841.50;5050953;28;20116;-84
2022/03/26 08:19:40;;;;;;;21.27;13.25;;;;;;;8.73;43.33;100849.44;5050962;28;20037;-83
2022/03/26 08:22:05;;;;;;;19.92;13.43;;;;;;;8.82;42.86;100844.44;5016330;28;20095;-82
2022/03/26 08:24:31;;;;;;;17.10;12.40;;;;;;;8.96;42.54;100846.16;5050790;28;20048;-83
2022/03/26 08:26:56;;;;;;;21.88;13.45;;;;;;;9.10;42.87;100848.72;5052118;28;20144;-81
2022/03/26 08:29:22;;;;;;;25.05;13.43;;;;;;;9.18;42.42;100841.19;5050607;28;20040;-80
2022/03/26 08:31:48;;;;;;;20.45;14.38;;;;;;;9.33;42.86;100849.81;5032832;28;20044;-83
2022/03/26 08:34:13;;;;;;;19.02;14.07;;;;;;;9.51;42.29;100850.38;5050165;28;20032;-83
2022/03/26 08:36:39;;;;;;;22.43;14.23;;;;;;;9.68;42.42;100855.34;4353695;28;10001326;-82
2022/03/26 08:39:05;;;;;;;16.55;14.18;;;;;;;9.82;42.40;100847.31;5049519;28;20303;-84
2022/03/26 08:41:30;;;;;;;19.48;13.85;;;;;;;9.88;42.36;100841.63;5053017;28;20037;-80
2022/03/26 08:43:56;;;;;;;19.95;14.52;;;;;;;10.07;41.64;100849.09;5058494;28;20531;-82
2022/03/26 08:46:22;;;;;;;21.58;13.82;;;;;;;10.22;41.50;100843.59;5069509;28;20037;-83
2022/03/26 08:48:50;;;;;;;20.30;14.75;;;;;;;10.44;41.04;100849.97;5051919;28;20029;-83
2022/03/26 08:51:16;;;;;;;23.38;14.40;;;;;;;10.67;40.83;100846.50;5053418;28;20060;-82
2022/03/26 08:53:42;;;;;;;22.35;14.68;;;;;;;10.87;40.19;100843.25;5034680;28;20063;-83
2022/03/26 08:56:08;;;;;;;18.35;13.60;;;;;;;11.04;38.84;100845.47;5052265;28;20044;-82
2022/03/26 08:58:34;;;;;;;16.83;13.55;;;;;;;11.13;38.53;100843.13;5052337;28;20416;-82
2022/03/26 09:01:00;;;;;;;22.05;14.20;;;;;;;11.25;37.93;100842.19;5052574;28;20029;-83
2022/03/26 09:03:26;;;;;;;20.42;13.10;;;;;;;11.42;37.46;100844.41;5051921;28;20049;-81
2022/03/26 09:05:53;;;;;;;21.65;13.35;;;;;;;11.62;37.37;100841.06;5052645;28;20116;-82
2022/03/26 09:08:19;;;;;;;21.65;13.93;;;;;;;11.76;36.74;100840.88;5041823;28;20066;-77
2022/03/26 09:10:46;;;;;;;16.65;13.43;;;;;;;11.95;36.41;100836.81;5060709;28;20123;-79
2022/03/26 09:13:12;;;;;;;21.98;14.05;;;;;;;12.09;35.67;100844.47;5062228;28;20037;-78
2022/03/26 09:15:38;;;;;;;17.10;12.93;;;;;;;12.27;36.04;100837.72;5059646;28;20044;-80
2022/03/26 09:18:04;;;;;;;19.38;13.43;;;;;;;12.42;35.43;100836.50;5037411;28;20561;-82
2022/03/26 09:20:30;;;;;;;20.70;13.68;;;;;;;12.55;35.04;100831.88;5053055;28;20060;-80
2022/03/26 09:22:56;;;;;;;20.05;13.82;;;;;;;12.65;34.32;100838.16;5035530;28;20029;-81
2022/03/26 09:25:22;;;;;;;19.65;13.48;;;;;;;12.71;34.03;100834.16;5051854;28;20037;-81
2022/03/26 09:27:49;;;;;;;24.80;13.45;;;;;;;12.81;33.83;100836.88;5045580;28;20036;-80
2022/03/26 09:30:15;;;;;;;17.88;13.23;;;;;;;12.93;33.91;100830.56;5063489;28;20492;-82
2022/03/26 09:32:41;;;;;;;20.60;12.77;;;;;;;13.09;33.74;100833.63;5063748;28;20075;-80
2022/03/26 09:35:08;;;;;;;19.40;13.45;;;;;;;13.26;33.24;100838.38;5026132;28;20034;-79
2022/03/26 09:37:34;;;;;;;17.48;13.93;;;;;;;13.39;33.38;100832.88;5057865;28;20485;-79
2022/03/26 09:40:02;;;;;;;24.27;13.38;;;;;;;13.43;32.32;100829.84;5050908;28;20048;-82
2022/03/26 09:42:29;;;;;;;16.60;12.73;;;;;;;13.50;32.45;100833.66;5029999;28;20464;-76
2022/03/26 09:44:56;;;;;;;20.75;13.75;;;;;;;13.64;32.15;100829.00;5050841;28;20408;-81
2022/03/26 09:47:21;;;;;;;18.25;13.55;;;;;;;13.73;31.88;100836.16;5042032;28;20037;-78
2022/03/26 09:49:47;;;;;;;23.08;14.02;;;;;;;13.76;32.08;100825.28;5052045;28;20095;-82
2022/03/26 09:52:13;;;;;;;16.95;13.15;;;;;;;13.88;32.11;100832.19;5050983;28;20029;-79
2022/03/26 09:54:39;;;;;;;18.75;12.80;;;;;;;14.02;31.66;100826.50;5040211;28;20044;-78
2022/03/26 09:57:04;;;;;;;18.98;12.95;;;;;;;14.10;31.05;100828.50;5043247;28;20105;-79
2022/03/26 09:59:30;;;;;;;18.73;13.02;;;;;;;14.19;30.97;100827.72;5050885;28;20025;-80
2022/03/26 10:01:56;;;;;;;15.75;12.88;;;;;;;14.29;30.66;100826.75;5051135;28;20037;-78
2022/03/26 10:04:23;;;;;;;15.88;12.70;;;;;;;14.39;30.42;100820.66;5051564;28;20040;-81
2022/03/26 10:06:53;;;;;;;17.73;12.75;;;;;;;14.40;30.17;100814.38;5065194;28;20040;-81
2022/03/26 10:09:46;;;;;;;16.48;13.30;;;;;;;14.44;29.79;100819.25;5070814;28;20017;-81
2022/03/26 10:12:17;;;;;;;17.55;12.93;;;;;;;14.58;29.86;100818.03;5053257;28;20033;-80
2022/03/26 10:14:42;;;;;;;17.63;12.95;;;;;;;14.69;29.79;100815.25;5037476;28;20147;-80
2022/03/26 10:17:09;;;;;;;18.10;13.35;;;;;;;14.79;30.08;100810.78;5052495;28;20480;-80
2022/03/26 10:19:35;;;;;;;16.70;13.18;;;;;;;14.81;29.90;100816.78;5045842;28;20029;-79
2022/03/26 10:22:01;;;;;;;20.35;13.10;;;;;;;14.89;29.93;100814.28;5051019;28;20104;-79
2022/03/26 10:24:28;;;;;;;16.55;12.90;;;;;;;15.00;29.70;100808.00;5051034;28;20513;-79
2022/03/26 10:26:55;;;;;;;15.52;12.55;;;;;;;15.01;29.33;100820.31;5051348;28;20079;-79
2022/03/26 10:29:20;;;;;;;18.25;13.07;;;;;;;15.06;29.67;100808.28;5051823;28;20021;-81
2022/03/26 10:34:32;;;;;;;17.55;12.70;;;;;;;15.20;29.09;100804.31;5055724;28;20044;-82
2022/03/26 10:37:01;;;;;;;15.05;12.85;;;;;;;15.28;28.98;100806.28;5065697;28;20033;-81
2022/03/26 10:39:28;;;;;;;16.53;12.63;;;;;;;15.39;28.73;100798.13;5059934;28;20052;-80
2022/03/26 10:41:55;;;;;;;18.20;12.63;;;;;;;15.49;28.86;100798.97;5072423;28;20410;-80
2022/03/26 10:44:24;;;;;;;17.63;12.38;;;;;;;15.61;28.54;100797.00;5069597;28;20036;-80
2022/03/26 10:46:51;;;;;;;18.88;12.45;;;;;;;15.67;28.42;100797.25;5063629;28;20040;-79
2022/03/26 10:49:31;;;;;;;20.73;13.43;;;;;;;15.73;27.70;100791.34;5060341;28;20119;-79
2022/03/26 10:52:04;;;;;;;18.75;14.30;;;;;;;15.77;27.74;100792.75;5052824;28;20029;-80
2022/03/26 10:54:32;;;;;;;19.48;12.45;;;;;;;15.83;28.00;100791.31;5064598;28;20040;-79
2022/03/26 10:56:59;;;;;;;14.85;12.68;;;;;;;15.90;28.24;100787.91;5056840;28;20147;-80
2022/03/26 10:59:27;;;;;;;17.33;11.25;;;;;;;16.01;27.32;100786.06;5054626;28;20017;-81
2022/03/26 11:01:53;;;;;;;12.00;10.68;;;;;;;16.16;27.02;100773.91;5054898;28;20067;-80
2022/03/26 11:04:19;;;;;;;15.27;12.20;;;;;;;16.32;26.58;100776.75;5037103;28;20122;-80
2022/03/26 11:06:47;;;;;;;13.82;10.82;;;;;;;16.44;26.42;100775.53;5055161;28;20063;-80
2022/03/26 11:09:17;;;;;;;14.23;10.80;;;;;;;16.50;26.02;100769.59;5017627;28;20559;-79
2022/03/26 11:11:47;;;;;;;16.02;11.88;;;;;;;16.56;26.17;100769.00;5053909;28;20028;-77
2022/03/26 11:14:37;;;;;;;13.30;11.07;;;;;;;16.65;26.14;100757.47;5054430;28;20032;-80
2022/03/26 11:17:18;;;;;;;13.88;12.07;;;;;;;16.71;25.88;100756.88;5050048;28;20456;-79
2022/03/26 11:20:36;;;;;;;13.70;10.82;;;;;;;16.79;25.75;100754.25;5033999;28;20032;-79
2022/03/26 11:23:17;;;;;;;13.63;10.25;;;;;;;16.87;25.49;100744.66;4995814;28;20037;-77
2022/03/26 11:25:46;;;;;;;14.23;10.68;;;;;;;16.95;25.69;100734.06;5032342;28;20049;-76
2022/03/26 11:28:22;;;;;;;14.98;11.15;;;;;;;17.07;25.18;100740.81;5052819;28;20021;-78
2022/03/26 11:31:09;;;;;;;14.52;10.25;;;;;;;17.21;25.74;100732.22;5051237;28;20083;-78
2022/03/26 11:33:37;;;;;;;19.15;12.43;;;;;;;17.37;25.65;100735.03;5053352;28;20422;-79
2022/03/26 11:36:05;;;;;;;12.63;11.13;;;;;;;17.52;25.48;100729.94;5058039;28;20032;-76
2022/03/26 11:38:31;;;;;;;13.88;11.02;;;;;;;17.63;25.23;100719.00;5040658;28;20111;-80
2022/03/26 11:41:03;;;;;;;15.13;12.05;;;;;;;17.76;25.25;100727.41;5039817;28;20052;-79
2022/03/26 11:43:42;;;;;;;14.05;10.50;;;;;;;17.92;25.19;100718.59;5058469;28;20404;-80
2022/03/26 11:51:42;;;;;;;18.90;12.60;;;;;;;18.34;24.31;100715.88;4699018;28;10000505;-79
2022/03/26 11:54:14;;;;;;;15.52;11.64;;;;;;;18.49;23.93;100708.06;4904528;28;10000541;-80
2022/03/26 11:56:41;;;;;;;20.52;15.32;;;;;;;18.60;23.22;100699.75;5033915;28;20234;-81
2022/03/26 11:59:16;;;;;;;26.95;15.73;;;;;;;18.74;22.92;100701.72;5049502;28;20084;-79
2022/03/26 12:01:48;;;;;;;18.85;14.20;;;;;;;18.92;22.58;100702.38;5046951;28;20181;-79
2022/03/26 12:04:15;;;;;;;16.70;13.00;;;;;;;18.99;22.05;100695.38;5048303;28;20041;-81
2022/03/26 12:06:57;;;;;;;15.13;12.32;;;;;;;19.01;22.04;100693.38;5049599;28;20033;-80
2022/03/26 12:09:37;;;;;;;14.48;11.40;;;;;;;19.08;21.98;100691.69;5048532;28;20033;-78
2022/03/26 12:12:10;;;;;;;15.50;12.35;;;;;;;19.16;22.38;100686.31;5019379;28;20136;-79
2022/03/26 12:15:01;;;;;;;15.05;12.50;;;;;;;19.28;22.10;100688.63;5030703;28;20048;-78
2022/03/26 12:18:08;;;;;;;15.05;10.82;;;;;;;19.31;22.03;100682.94;5048790;28;20519;-79
2022/03/26 12:20:35;;;;;;;12.63;10.95;;;;;;;19.35;21.73;100694.97;5004557;28;20056;-80
2022/03/26 12:23:03;;;;;;;12.20;10.77;;;;;;;19.36;21.10;100685.94;5043983;28;20067;-78
2022/03/26 12:25:49;;;;;;;12.40;10.88;;;;;;;19.39;21.13;100677.53;5048886;28;20123;-80
2022/03/26 12:28:24;;;;;;;14.98;10.80;;;;;;;19.44;21.07;100672.53;5047083;28;20033;-80
2022/03/26 12:30:52;;;;;;;13.40;11.15;;;;;;;19.47;21.31;100672.19;5047232;28;20366;-79
2022/03/26 12:33:19;;;;;;;14.70;11.73;;;;;;;19.52;21.12;100664.47;5049898;28;20408;-79
2022/03/26 12:35:47;;;;;;;22.95;11.48;;;;;;;19.60;20.84;100659.09;5031519;28;20037;-80
2022/03/26 12:38:13;;;;;;;13.45;11.32;;;;;;;19.68;20.94;100664.41;5050264;28;20124;-81
2022/03/26 12:40:39;;;;;;;16.25;11.25;;;;;;;19.79;20.97;100661.31;5048838;28;20036;-79